Time;durP1;ratioP1;P1;durP2;ratioP2;P2;SDS_P1;SDS_P2;PMS_P1;PMS_P2;Temp;Humidity;BMP_temperature;BMP_pressure;BME280_temperature;BME280_humidity;BME280_pressure;Samples;Min_cycle;Max_cycle;Signal;HPM_P1;HPM_P2
2021/10/10 00:00:52;;;;;;;26.58;19.52;;;5.80;99.90;;;;;;5055023;28;20037;-66
2021/10/10 00:03:18;;;;;;;23.80;18.65;;;5.70;99.90;;;;;;5041589;28;20044;-66
2021/10/10 00:05:44;;;;;;;23.15;18.05;;;5.70;99.90;;;;;;5047613;28;20033;-66
2021/10/10 00:08:09;;;;;;;23.58;19.00;;;5.70;99.90;;;;;;5037752;28;20075;-66
2021/10/10 00:10:35;;;;;;;21.77;17.40;;;5.70;99.90;;;;;;5064770;28;20514;-67
2021/10/10 00:13:01;;;;;;;19.05;16.73;;;5.70;99.90;;;;;;5063080;28;20033;-66
2021/10/10 00:15:27;;;;;;;29.48;19.48;;;5.70;99.90;;;;;;5070404;28;20400;-66
2021/10/10 00:17:53;;;;;;;25.48;19.48;;;5.70;99.90;;;;;;5039190;28;20348;-66
2021/10/10 00:20:20;;;;;;;29.50;20.13;;;5.70;99.90;;;;;;5057750;28;20439;-66
2021/10/10 00:22:45;;;;;;;23.00;18.15;;;5.70;99.90;;;;;;5054645;28;20527;-66
2021/10/10 00:25:12;;;;;;;20.38;17.02;;;5.60;99.90;;;;;;5052548;28;20107;-67
2021/10/10 00:27:38;;;;;;;21.15;17.95;;;5.50;99.90;;;;;;5055757;28;20068;-67
2021/10/10 00:30:05;;;;;;;24.45;18.30;;;5.50;99.90;;;;;;5059078;28;20067;-67
2021/10/10 00:32:31;;;;;;;22.40;18.05;;;5.50;99.90;;;;;;5055203;28;20060;-67
2021/10/10 00:34:57;;;;;;;23.10;17.70;;;5.40;99.90;;;;;;5018767;28;20045;-67
2021/10/10 00:37:24;;;;;;;22.17;18.55;;;5.30;99.90;;;;;;5051549;28;20129;-67
2021/10/10 00:39:49;;;;;;;24.35;17.70;;;5.30;99.90;;;;;;5062215;28;20077;-67
2021/10/10 00:42:15;;;;;;;24.95;20.45;;;5.30;99.90;;;;;;5054601;28;20072;-67
2021/10/10 00:44:44;;;;;;;33.17;20.67;;;5.30;99.90;;;;;;5052627;28;20033;-67
2021/10/10 00:47:11;;;;;;;32.30;23.25;;;5.30;99.90;;;;;;5031089;28;20585;-67
2021/10/10 00:49:37;;;;;;;28.67;21.70;;;5.30;99.90;;;;;;5042995;28;20055;-67
2021/10/10 00:52:05;;;;;;;30.65;21.92;;;5.20;99.90;;;;;;5055768;28;20095;-67
2021/10/10 00:54:31;;;;;;;30.00;23.55;;;5.20;99.90;;;;;;5033680;28;20396;-66
2021/10/10 00:56:57;;;;;;;34.25;23.77;;;5.30;99.90;;;;;;5055191;28;20428;-66
2021/10/10 00:59:25;;;;;;;30.42;22.50;;;5.30;99.90;;;;;;5048586;28;20032;-66
2021/10/10 01:01:51;;;;;;;25.83;20.75;;;5.30;99.90;;;;;;5054299;28;20037;-66
2021/10/10 01:04:18;;;;;;;28.05;21.42;;;5.30;99.90;;;;;;5047006;28;20033;-66
2021/10/10 01:06:44;;;;;;;25.33;20.35;;;5.30;99.90;;;;;;5038721;28;20044;-66
2021/10/10 01:09:15;;;;;;;28.02;21.90;;;5.30;99.90;;;;;;5045492;28;20049;-66
2021/10/10 01:11:42;;;;;;;23.88;18.60;;;5.30;99.90;;;;;;5048861;28;20052;-66
2021/10/10 01:14:09;;;;;;;23.88;18.85;;;5.20;99.90;;;;;;5035090;28;20040;-66
2021/10/10 01:16:35;;;;;;;25.00;19.48;;;5.20;99.90;;;;;;5061994;28;20043;-66
2021/10/10 01:19:01;;;;;;;26.23;19.25;;;5.20;99.90;;;;;;5058184;28;20485;-66
2021/10/10 01:21:27;;;;;;;23.35;19.67;;;5.10;99.90;;;;;;5062277;28;20044;-66
2021/10/10 01:23:53;;;;;;;24.00;19.58;;;5.20;99.90;;;;;;5060435;28;20037;-66
2021/10/10 01:26:19;;;;;;;22.05;17.63;;;5.10;99.90;;;;;;5059868;28;20599;-66
2021/10/10 01:28:45;;;;;;;23.73;17.63;;;5.10;99.90;;;;;;5053183;28;20041;-66
2021/10/10 01:31:11;;;;;;;24.42;18.55;;;5.00;99.90;;;;;;5042994;28;20049;-66
2021/10/10 01:33:37;;;;;;;23.30;17.92;;;5.00;99.90;;;;;;5063247;28;20039;-66
2021/10/10 01:36:04;;;;;;;20.40;17.05;;;5.00;99.90;;;;;;5054192;28;20516;-66
2021/10/10 01:38:30;;;;;;;21.55;17.90;;;5.00;99.90;;;;;;5044164;28;20120;-66
2021/10/10 01:40:55;;;;;;;22.33;17.23;;;4.90;99.90;;;;;;5034155;28;20048;-66
2021/10/10 01:43:21;;;;;;;21.65;17.27;;;4.90;99.90;;;;;;5040393;28;20071;-66
2021/10/10 01:45:47;;;;;;;23.65;17.92;;;4.90;99.90;;;;;;5018201;28;20412;-66
2021/10/10 01:48:13;;;;;;;23.63;18.48;;;4.80;99.90;;;;;;5044804;28;20040;-66
2021/10/10 01:50:39;;;;;;;23.27;18.15;;;4.80;99.90;;;;;;5062016;28;20052;-67
2021/10/10 01:53:05;;;;;;;24.15;18.73;;;4.80;99.90;;;;;;5041576;28;20069;-67
2021/10/10 01:55:31;;;;;;;21.40;17.58;;;4.80;99.90;;;;;;5036371;28;20055;-67
2021/10/10 01:57:56;;;;;;;20.80;17.08;;;4.80;99.90;;;;;;5060040;28;20041;-67
2021/10/10 02:00:22;;;;;;;22.50;18.58;;;4.80;99.90;;;;;;5030147;28;20033;-67
2021/10/10 02:02:48;;;;;;;20.85;17.15;;;4.70;99.90;;;;;;5063548;28;20028;-67
2021/10/10 02:05:14;;;;;;;21.33;17.17;;;4.70;99.90;;;;;;5053038;28;20068;-67
2021/10/10 02:07:40;;;;;;;21.40;16.98;;;4.70;99.90;;;;;;5040151;28;20381;-67
2021/10/10 02:10:08;;;;;;;25.45;18.85;;;4.60;99.90;;;;;;5055167;28;20048;-67
2021/10/10 02:12:34;;;;;;;22.35;17.85;;;4.60;99.90;;;;;;5050894;28;20037;-67
2021/10/10 02:15:00;;;;;;;20.70;16.45;;;4.60;99.90;;;;;;5038833;28;20025;-67
2021/10/10 02:17:25;;;;;;;19.67;16.98;;;4.50;99.90;;;;;;5039074;28;20059;-67
2021/10/10 02:19:52;;;;;;;21.33;16.52;;;4.50;99.90;;;;;;5038557;28;20086;-67
2021/10/10 02:22:18;;;;;;;21.67;16.80;;;4.50;99.90;;;;;;5035148;28;20095;-67
2021/10/10 02:24:44;;;;;;;23.40;16.35;;;4.50;99.90;;;;;;5037409;28;20075;-67
2021/10/10 02:27:09;;;;;;;19.42;16.58;;;4.50;99.90;;;;;;5034680;28;20086;-67
2021/10/10 02:29:35;;;;;;;20.95;16.75;;;4.40;99.90;;;;;;5039024;28;20045;-67
2021/10/10 02:32:01;;;;;;;25.75;19.77;;;4.40;99.90;;;;;;5020987;28;20052;-67
2021/10/10 02:34:26;;;;;;;20.50;16.23;;;4.40;99.90;;;;;;5062284;28;20033;-67
2021/10/10 02:36:52;;;;;;;19.13;15.25;;;4.40;99.90;;;;;;5034583;28;20123;-67
2021/10/10 02:39:18;;;;;;;20.92;15.82;;;4.40;99.90;;;;;;5031451;28;20059;-67
2021/10/10 02:41:44;;;;;;;18.33;15.25;;;4.30;99.90;;;;;;5054022;28;20032;-67
2021/10/10 02:44:10;;;;;;;26.05;17.25;;;4.30;99.90;;;;;;5042358;28;20055;-67
2021/10/10 02:46:36;;;;;;;21.13;15.93;;;4.30;99.90;;;;;;5037441;28;20115;-67
2021/10/10 02:49:02;;;;;;;16.77;14.60;;;4.30;99.90;;;;;;5056814;28;20491;-67
2021/10/10 02:51:30;;;;;;;18.73;15.75;;;4.30;99.90;;;;;;5059205;28;20386;-67
2021/10/10 02:53:56;;;;;;;21.90;16.05;;;4.30;99.90;;;;;;5049477;28;20045;-67
2021/10/10 02:56:21;;;;;;;21.15;16.13;;;4.20;99.90;;;;;;5056567;28;20051;-67
2021/10/10 02:58:48;;;;;;;19.63;14.70;;;4.20;99.90;;;;;;5057014;28;20394;-66
2021/10/10 03:01:13;;;;;;;18.65;15.25;;;4.20;99.90;;;;;;5041504;28;20107;-67
2021/10/10 03:03:39;;;;;;;18.67;15.00;;;4.20;99.90;;;;;;5033942;28;20133;-67
2021/10/10 03:06:07;;;;;;;22.27;16.30;;;4.20;99.90;;;;;;5057497;28;20064;-67
2021/10/10 03:08:33;;;;;;;22.85;17.23;;;4.20;99.90;;;;;;5034541;28;20064;-67
2021/10/10 03:10:59;;;;;;;18.92;15.77;;;4.20;99.90;;;;;;5038274;28;20083;-67
2021/10/10 03:13:25;;;;;;;21.95;16.33;;;4.20;99.90;;;;;;5057218;28;20072;-67
2021/10/10 03:15:50;;;;;;;24.02;18.85;;;4.10;99.90;;;;;;5065164;28;20035;-67
2021/10/10 03:18:16;;;;;;;21.42;15.73;;;4.10;99.90;;;;;;5049304;28;20052;-67
2021/10/10 03:20:42;;;;;;;19.50;15.27;;;4.10;99.90;;;;;;5055648;28;20075;-67
2021/10/10 03:23:08;;;;;;;18.92;15.82;;;4.10;99.90;;;;;;5038418;28;20044;-67
2021/10/10 03:25:33;;;;;;;20.10;16.95;;;4.20;99.90;;;;;;5060564;28;20037;-67
2021/10/10 03:27:59;;;;;;;17.75;15.55;;;4.10;99.90;;;;;;5054739;28;20042;-67
2021/10/10 03:30:25;;;;;;;18.52;16.20;;;4.10;99.90;;;;;;5031064;28;20037;-67
2021/10/10 03:32:50;;;;;;;19.88;16.35;;;4.00;99.90;;;;;;5054744;28;20051;-67
2021/10/10 03:35:16;;;;;;;19.85;15.43;;;4.00;99.90;;;;;;5042601;28;20055;-67
2021/10/10 03:37:42;;;;;;;20.92;15.48;;;4.00;99.90;;;;;;5056241;28;20059;-67
2021/10/10 03:40:10;;;;;;;22.20;16.73;;;4.00;99.90;;;;;;5053617;28;20403;-67
2021/10/10 03:42:36;;;;;;;24.65;18.20;;;4.00;99.90;;;;;;5065914;28;20117;-67
2021/10/10 03:45:03;;;;;;;23.45;16.17;;;4.00;99.90;;;;;;5049072;28;20131;-67
2021/10/10 03:47:28;;;;;;;19.60;16.15;;;4.00;99.90;;;;;;5055075;28;20343;-67
2021/10/10 03:49:54;;;;;;;19.88;16.55;;;4.00;99.90;;;;;;5039418;28;20072;-67
2021/10/10 03:52:20;;;;;;;24.52;19.52;;;4.00;99.90;;;;;;5026039;28;20045;-67
2021/10/10 03:57:11;;;;;;;21.75;17.60;;;3.90;99.90;;;;;;5041766;28;20048;-67
2021/10/10 03:59:37;;;;;;;17.88;15.55;;;3.90;99.90;;;;;;5037638;28;20044;-67
2021/10/10 04:02:06;;;;;;;24.75;18.23;;;3.90;99.90;;;;;;5057256;28;20427;-67
2021/10/10 04:04:35;;;;;;;27.20;19.95;;;3.90;99.90;;;;;;5040567;28;20116;-67
2021/10/10 04:07:01;;;;;;;26.38;19.95;;;3.90;99.90;;;;;;5034246;28;20045;-67
2021/10/10 04:09:27;;;;;;;22.75;16.95;;;3.90;99.90;;;;;;5058413;28;20083;-67
2021/10/10 04:11:52;;;;;;;21.40;15.98;;;3.90;99.90;;;;;;5032828;28;20041;-67
2021/10/10 04:14:18;;;;;;;22.27;17.13;;;3.90;99.90;;;;;;5034623;28;20165;-67
2021/10/10 04:16:44;;;;;;;21.92;17.40;;;3.80;99.90;;;;;;5031888;28;20044;-67
2021/10/10 04:19:09;;;;;;;25.33;19.33;;;3.80;99.90;;;;;;5046006;28;20040;-67
2021/10/10 04:21:35;;;;;;;22.63;17.10;;;3.80;99.90;;;;;;5055404;28;20028;-67
2021/10/10 04:24:01;;;;;;;24.77;18.13;;;3.80;99.90;;;;;;5045662;28;20142;-67
2021/10/10 04:26:26;;;;;;;24.08;16.17;;;3.80;99.90;;;;;;5033835;28;20028;-67
2021/10/10 04:28:52;;;;;;;21.73;16.65;;;3.80;99.90;;;;;;5041018;28;20551;-67
2021/10/10 04:31:18;;;;;;;20.23;16.15;;;3.80;99.90;;;;;;5030380;28;20091;-67
2021/10/10 04:33:43;;;;;;;20.58;16.65;;;3.70;99.90;;;;;;5060673;28;20386;-67
2021/10/10 04:36:10;;;;;;;23.75;17.67;;;3.70;99.90;;;;;;5048802;28;20060;-67
2021/10/10 04:38:35;;;;;;;18.48;15.50;;;3.70;99.90;;;;;;5060584;28;20052;-67
2021/10/10 04:41:01;;;;;;;25.30;17.00;;;3.70;99.90;;;;;;5036639;28;20028;-67
2021/10/10 04:43:27;;;;;;;21.30;14.95;;;3.70;99.90;;;;;;5037348;28;20114;-67
2021/10/10 04:45:53;;;;;;;21.35;16.92;;;3.70;99.90;;;;;;5056257;28;20037;-67
2021/10/10 04:48:18;;;;;;;20.40;15.60;;;3.60;99.90;;;;;;5036703;28;20069;-67
2021/10/10 04:50:44;;;;;;;19.65;15.20;;;3.60;99.90;;;;;;5045083;28;20457;-67
2021/10/10 04:53:09;;;;;;;21.55;16.52;;;3.60;99.90;;;;;;5046925;28;20396;-67
2021/10/10 04:55:35;;;;;;;18.42;15.32;;;3.50;99.90;;;;;;5021851;28;20110;-67
2021/10/10 04:58:01;;;;;;;19.88;14.82;;;3.60;99.90;;;;;;5049252;28;20045;-67
2021/10/10 05:00:27;;;;;;;23.20;17.85;;;3.50;99.90;;;;;;5060277;28;20045;-67
2021/10/10 05:02:55;;;;;;;31.38;19.52;;;3.50;99.90;;;;;;5036600;28;20049;-67
2021/10/10 05:05:21;;;;;;;23.10;17.40;;;3.50;99.90;;;;;;5055804;28;20039;-67
2021/10/10 05:07:47;;;;;;;25.88;17.00;;;3.50;99.90;;;;;;5046297;28;20743;-67
2021/10/10 05:10:13;;;;;;;22.80;16.77;;;3.50;99.90;;;;;;5058518;28;20132;-67
2021/10/10 05:12:38;;;;;;;26.15;19.08;;;3.50;99.90;;;;;;5037369;28;20497;-67
2021/10/10 05:15:05;;;;;;;22.90;15.35;;;3.50;99.90;;;;;;5037002;28;20036;-67
2021/10/10 05:17:31;;;;;;;17.42;14.75;;;3.50;99.90;;;;;;5037319;28;20047;-67
2021/10/10 05:19:57;;;;;;;18.77;14.95;;;3.40;99.90;;;;;;5060247;28;20036;-67
2021/10/10 05:22:23;;;;;;;24.48;17.55;;;3.40;99.90;;;;;;5052733;28;20295;-67
2021/10/10 05:24:48;;;;;;;19.88;15.90;;;3.40;99.90;;;;;;5017435;28;20131;-67
2021/10/10 05:27:14;;;;;;;23.83;17.40;;;3.50;99.90;;;;;;5033789;28;20116;-67
2021/10/10 05:29:40;;;;;;;20.95;16.05;;;3.40;99.90;;;;;;5053710;28;20048;-67
2021/10/10 05:32:05;;;;;;;25.98;17.45;;;3.40;99.90;;;;;;5036533;28;20040;-68
2021/10/10 05:34:32;;;;;;;20.38;16.35;;;3.40;99.90;;;;;;5034523;28;20044;-68
2021/10/10 05:36:57;;;;;;;18.80;15.35;;;3.40;99.90;;;;;;5038014;28;20057;-68
2021/10/10 05:39:23;;;;;;;19.60;14.88;;;3.50;99.90;;;;;;5048727;28;20048;-68
2021/10/10 05:41:49;;;;;;;17.20;14.45;;;3.50;99.90;;;;;;5034665;28;20365;-68
2021/10/10 05:44:15;;;;;;;20.48;15.82;;;3.50;99.90;;;;;;5050209;28;20171;-68
2021/10/10 05:46:40;;;;;;;21.92;15.98;;;3.50;99.90;;;;;;5048672;28;20039;-68
2021/10/10 05:49:06;;;;;;;20.52;16.05;;;3.50;99.90;;;;;;5032515;28;20084;-68
2021/10/10 05:51:32;;;;;;;17.55;15.50;;;3.50;99.90;;;;;;5058693;28;20080;-68
2021/10/10 05:53:58;;;;;;;21.02;15.73;;;3.50;99.90;;;;;;5052260;28;20064;-68
2021/10/10 05:56:23;;;;;;;21.20;16.27;;;3.40;99.90;;;;;;5058030;28;20033;-68
2021/10/10 05:59:02;;;;;;;21.25;16.35;;;3.40;99.90;;;;;;5030492;28;20469;-68
2021/10/10 06:01:28;;;;;;;21.50;15.65;;;3.50;99.90;;;;;;5055774;28;20507;-67
2021/10/10 06:03:54;;;;;;;20.30;14.60;;;3.50;99.90;;;;;;5041311;28;20072;-67
2021/10/10 06:06:19;;;;;;;27.48;18.20;;;3.40;99.90;;;;;;5035597;28;20122;-68
2021/10/10 06:08:45;;;;;;;19.05;15.50;;;3.40;99.90;;;;;;5059391;28;20033;-67
2021/10/10 06:11:11;;;;;;;23.17;16.45;;;3.50;99.90;;;;;;5041004;28;20048;-67
2021/10/10 06:13:40;;;;;;;20.65;16.33;;;3.50;99.90;;;;;;5044505;28;20046;-67
2021/10/10 06:16:06;;;;;;;21.70;17.13;;;3.50;99.90;;;;;;5038475;28;20040;-67
2021/10/10 06:18:33;;;;;;;27.00;20.45;;;3.50;99.90;;;;;;5042333;28;20105;-67
2021/10/10 06:20:59;;;;;;;29.65;19.60;;;3.50;99.90;;;;;;5036304;28;20072;-67
2021/10/10 06:23:24;;;;;;;24.88;16.98;;;3.70;99.90;;;;;;5042061;28;20082;-67
2021/10/10 06:25:50;;;;;;;22.45;17.33;;;3.70;99.90;;;;;;5054925;28;20161;-67
2021/10/10 06:28:16;;;;;;;30.08;20.20;;;3.70;99.90;;;;;;5046336;28;20041;-67
2021/10/10 06:30:41;;;;;;;28.05;20.85;;;3.80;99.90;;;;;;5041399;28;20447;-67
2021/10/10 06:33:07;;;;;;;33.92;20.10;;;3.90;99.90;;;;;;5036738;28;20036;-67
2021/10/10 06:35:33;;;;;;;29.83;20.55;;;4.00;99.90;;;;;;5038997;28;20449;-67
2021/10/10 06:37:58;;;;;;;34.55;22.30;;;4.00;99.90;;;;;;5051148;28;20105;-67
2021/10/10 06:40:24;;;;;;;31.52;21.65;;;4.10;99.90;;;;;;5059945;28;20029;-67
2021/10/10 06:42:50;;;;;;;29.98;23.25;;;4.20;99.90;;;;;;5060231;28;20055;-67
2021/10/10 06:45:16;;;;;;;29.73;22.50;;;4.30;99.90;;;;;;5063248;28;20032;-67
2021/10/10 06:47:41;;;;;;;32.17;22.45;;;4.40;99.90;;;;;;5051041;28;20532;-67
2021/10/10 06:50:07;;;;;;;33.05;22.98;;;4.50;99.90;;;;;;5058623;28;20028;-67
2021/10/10 06:52:33;;;;;;;29.58;21.58;;;4.60;99.90;;;;;;5040406;28;20040;-67
2021/10/10 06:54:59;;;;;;;29.20;22.33;;;4.70;99.90;;;;;;5040730;28;20504;-67
2021/10/10 06:57:28;;;;;;;32.45;21.38;;;4.90;99.90;;;;;;5056301;28;20029;-67
2021/10/10 06:59:58;;;;;;;32.92;23.40;;;5.00;99.90;;;;;;5037972;28;20067;-66
2021/10/10 07:02:24;;;;;;;29.45;22.80;;;5.20;99.90;;;;;;5057309;28;20071;-66
2021/10/10 07:04:49;;;;;;;29.92;21.67;;;5.40;99.90;;;;;;5045105;28;20051;-67
2021/10/10 07:07:15;;;;;;;29.98;23.13;;;5.50;99.90;;;;;;5050807;28;20044;-67
2021/10/10 07:09:41;;;;;;;26.45;21.63;;;5.70;99.90;;;;;;5061352;28;20179;-66
2021/10/10 07:12:06;;;;;;;28.48;22.15;;;5.90;99.90;;;;;;5055916;28;20520;-66
2021/10/10 07:14:32;;;;;;;27.95;24.13;;;6.10;99.90;;;;;;5066737;28;20126;-66
2021/10/10 07:16:58;;;;;;;24.80;21.63;;;6.40;99.90;;;;;;5043093;28;20052;-66
2021/10/10 07:19:26;;;;;;;24.40;21.27;;;6.80;99.90;;;;;;5071367;28;20033;-67
2021/10/10 07:22:01;;;;;;;23.27;19.88;;;7.40;99.90;;;;;;5060706;28;20069;-67
2021/10/10 07:26:56;;;;;;;23.40;18.65;;;8.40;99.90;;;;;;5040878;28;20091;-67
2021/10/10 07:29:21;;;;;;;21.58;17.85;;;8.40;99.90;;;;;;5036428;28;20130;-67
2021/10/10 07:31:47;;;;;;;20.63;18.42;;;8.70;99.90;;;;;;5058545;28;20033;-67
2021/10/10 07:34:13;;;;;;;20.85;18.63;;;8.80;99.90;;;;;;5041783;28;20080;-66
2021/10/10 07:36:38;;;;;;;24.08;19.90;;;8.80;99.90;;;;;;5046682;28;20053;-67
2021/10/10 07:39:04;;;;;;;25.85;20.48;;;8.70;99.90;;;;;;5051571;28;20657;-67
2021/10/10 07:41:35;;;;;;;25.95;20.35;;;8.50;99.90;;;;;;5054416;28;20049;-66
2021/10/10 07:44:04;;;;;;;22.27;19.92;;;8.50;99.90;;;;;;5056475;28;20107;-67
2021/10/10 07:46:34;;;;;;;26.60;21.05;;;8.70;99.90;;;;;;5040231;28;20045;-66
2021/10/10 07:49:00;;;;;;;24.67;21.05;;;8.90;99.90;;;;;;5053929;28;20149;-67
2021/10/10 07:51:28;;;;;;;23.80;20.23;;;9.10;99.90;;;;;;5043971;28;20091;-67
2021/10/10 07:53:54;;;;;;;25.08;21.08;;;9.40;99.90;;;;;;5051972;28;20476;-67
2021/10/10 07:56:20;;;;;;;23.90;21.35;;;9.80;99.90;;;;;;5060087;28;20107;-67
2021/10/10 07:58:45;;;;;;;27.38;20.33;;;10.30;99.90;;;;;;5062493;28;20456;-67
2021/10/10 08:01:11;;;;;;;25.08;21.00;;;10.60;99.90;;;;;;5058206;28;20036;-67
2021/10/10 08:03:37;;;;;;;22.90;20.02;;;11.10;99.90;;;;;;5061672;28;20034;-67
2021/10/10 08:06:02;;;;;;;22.95;20.55;;;11.80;99.90;;;;;;5052087;28;20039;-67
2021/10/10 08:08:28;;;;;;;22.90;20.20;;;12.30;99.90;;;;;;5040779;28;20461;-67
2021/10/10 08:10:54;;;;;;;25.63;20.17;;;12.60;99.90;;;;;;5047911;28;20107;-67
2021/10/10 08:13:19;;;;;;;23.08;20.67;;;12.80;99.90;;;;;;5030852;28;20057;-67
2021/10/10 08:15:45;;;;;;;23.20;20.83;;;12.90;99.90;;;;;;5056631;28;20123;-67
2021/10/10 08:18:11;;;;;;;22.90;20.35;;;13.20;99.90;;;;;;5053720;28;20041;-66
2021/10/10 08:20:38;;;;;;;21.77;19.48;;;13.40;99.90;;;;;;5049852;28;20040;-67
2021/10/10 08:23:05;;;;;;;23.25;20.13;;;13.40;99.90;;;;;;5052709;28;20112;-67
2021/10/10 08:25:32;;;;;;;22.73;19.98;;;13.40;99.90;;;;;;5053369;28;20412;-67
2021/10/10 08:27:58;;;;;;;23.02;20.33;;;13.50;99.90;;;;;;5056603;28;20033;-67
2021/10/10 08:30:25;;;;;;;23.73;19.88;;;13.60;99.90;;;;;;5046671;28;20029;-67
2021/10/10 08:32:51;;;;;;;21.50;19.27;;;13.60;99.90;;;;;;5053419;28;20047;-67
2021/10/10 08:35:18;;;;;;;23.08;19.52;;;13.60;99.90;;;;;;5050347;28;20562;-67
2021/10/10 08:37:44;;;;;;;24.02;21.48;;;13.60;99.90;;;;;;5056774;28;20036;-67
2021/10/10 08:40:11;;;;;;;23.00;20.65;;;13.80;99.90;;;;;;5057567;28;20090;-67
2021/10/10 08:42:39;;;;;;;23.52;21.00;;;14.20;99.40;;;;;;5046686;28;20045;-67
2021/10/10 08:47:43;;;;;;;22.55;20.25;;;15.00;98.40;;;;;;5056772;28;20526;-67
2021/10/10 08:50:24;;;;;;;23.58;21.02;;;15.30;97.20;;;;;;5060112;28;20040;-67
2021/10/10 08:52:52;;;;;;;24.17;21.65;;;15.50;95.80;;;;;;5055606;28;20136;-67
2021/10/10 08:55:19;;;;;;;21.50;19.20;;;15.40;95.90;;;;;;5058015;28;20040;-68
2021/10/10 08:57:46;;;;;;;23.73;20.85;;;15.10;95.10;;;;;;5050473;28;20033;-67
2021/10/10 09:00:21;;;;;;;23.92;21.48;;;14.70;95.20;;;;;;5066145;28;20429;-66
2021/10/10 09:02:48;;;;;;;33.88;29.73;;;14.30;95.80;;;;;;5056712;28;20044;-66
2021/10/10 09:05:15;;;;;;;26.88;22.58;;;14.00;97.00;;;;;;5034759;28;20067;-66
2021/10/10 09:07:43;;;;;;;25.40;22.70;;;13.80;97.30;;;;;;5049122;28;20044;-67
2021/10/10 09:10:18;;;;;;;25.95;21.98;;;13.50;97.80;;;;;;5040156;28;20055;-66
2021/10/10 09:12:44;;;;;;;24.88;22.33;;;13.40;98.20;;;;;;5055882;28;20500;-67
2021/10/10 09:15:10;;;;;;;25.42;22.80;;;13.30;98.90;;;;;;5069912;28;20036;-67
2021/10/10 09:17:36;;;;;;;25.27;22.60;;;13.20;99.10;;;;;;5045623;28;20056;-65
2021/10/10 09:20:05;;;;;;;30.10;23.63;;;13.10;99.30;;;;;;5053314;28;20076;-65
2021/10/10 09:22:31;;;;;;;26.70;23.50;;;13.20;99.30;;;;;;5052676;28;20130;-65
2021/10/10 09:25:08;;;;;;;26.20;23.50;;;13.20;99.50;;;;;;5055555;28;20363;-65
2021/10/10 09:27:34;;;;;;;26.55;23.80;;;13.40;99.60;;;;;;5045192;28;20109;-65
2021/10/10 09:30:03;;;;;;;26.65;23.98;;;13.60;99.70;;;;;;5034142;28;20114;-65
2021/10/10 09:32:29;;;;;;;25.95;23.35;;;13.90;99.90;;;;;;5058518;28;20106;-65
2021/10/10 09:34:54;;;;;;;25.80;23.10;;;14.30;99.50;;;;;;5054775;28;20033;-65
2021/10/10 09:37:38;;;;;;;26.98;24.15;;;14.80;98.40;;;;;;5059085;28;20086;-65
2021/10/10 09:40:15;;;;;;;25.30;22.70;;;15.10;97.60;;;;;;5064280;28;20091;-65
2021/10/10 09:42:45;;;;;;;26.42;23.30;;;15.50;97.20;;;;;;5064127;28;20033;-65
2021/10/10 09:48:11;;;;;;;26.17;22.08;;;17.00;94.30;;;;;;5060505;28;20511;-65
2021/10/10 09:50:37;;;;;;;26.05;23.30;;;17.20;93.40;;;;;;5052109;28;20041;-65
2021/10/10 09:53:09;;;;;;;24.45;21.92;;;17.90;92.40;;;;;;5064666;28;20086;-65
2021/10/10 09:55:54;;;;;;;23.88;21.48;;;18.50;90.80;;;;;;5061973;28;20076;-65
2021/10/10 09:58:53;;;;;;;22.02;19.75;;;19.10;82.90;;;;;;5062817;28;20040;-65
2021/10/10 10:01:22;;;;;;;24.50;21.90;;;19.40;82.00;;;;;;5046735;28;20041;-65
2021/10/10 10:04:03;;;;;;;27.42;24.85;;;19.60;84.20;;;;;;5059421;28;20497;-66
2021/10/10 10:06:32;;;;;;;25.02;22.52;;;19.70;80.60;;;;;;5058278;28;20087;-66
2021/10/10 10:09:03;;;;;;;22.95;20.48;;;19.60;81.60;;;;;;5055192;28;20048;-65
2021/10/10 10:11:35;;;;;;;22.17;19.92;;;19.00;82.00;;;;;;5065343;28;20047;-65
2021/10/10 10:14:04;;;;;;;26.60;22.00;;;18.40;82.10;;;;;;5060085;28;20070;-65
2021/10/10 10:16:32;;;;;;;21.55;19.50;;;18.00;85.10;;;;;;5049284;28;20119;-65
2021/10/10 10:19:01;;;;;;;22.63;20.25;;;17.70;84.50;;;;;;5063094;28;20238;-65
2021/10/10 10:21:28;;;;;;;47.53;43.03;;;17.70;85.00;;;;;;5059916;28;20116;-66
2021/10/10 10:24:00;;;;;;;25.30;22.77;;;17.70;86.10;;;;;;5063120;28;20032;-66
2021/10/10 10:26:33;;;;;;;22.77;20.42;;;18.30;84.80;;;;;;5055400;28;20120;-66
2021/10/10 10:29:02;;;;;;;22.25;19.67;;;19.00;81.20;;;;;;5061077;28;20084;-66
2021/10/10 10:31:33;;;;;;;22.30;20.20;;;19.60;79.40;;;;;;5044198;28;20082;-66
2021/10/10 10:34:28;;;;;;;22.63;20.27;;;20.00;75.90;;;;;;5064958;28;20354;-66
2021/10/10 10:36:56;;;;;;;23.70;21.40;;;20.40;72.80;;;;;;5053269;28;20530;-66
2021/10/10 10:39:39;;;;;;;22.17;20.00;;;20.80;73.70;;;;;;5060039;28;20489;-66
2021/10/10 10:42:12;;;;;;;22.47;20.17;;;21.10;72.40;;;;;;5048405;28;20066;-66
2021/10/10 10:44:48;;;;;;;21.33;19.33;;;21.30;71.20;;;;;;5059880;28;20291;-65
2021/10/10 10:47:15;;;;;;;22.40;20.30;;;21.50;70.30;;;;;;5059142;28;20449;-65
2021/10/10 10:49:57;;;;;;;22.63;20.40;;;21.70;68.50;;;;;;5061059;28;20098;-66
2021/10/10 10:52:28;;;;;;;23.55;21.13;;;21.90;67.10;;;;;;5044100;28;20143;-67
2021/10/10 10:55:16;;;;;;;23.35;20.95;;;22.10;66.20;;;;;;5063637;28;20033;-67
2021/10/10 10:57:51;;;;;;;23.70;21.30;;;22.20;65.30;;;;;;5056757;28;20036;-67
2021/10/10 11:00:24;;;;;;;23.65;21.38;;;22.30;65.70;;;;;;5060931;28;20401;-67
2021/10/10 11:02:53;;;;;;;23.80;21.50;;;22.50;64.30;;;;;;5055531;28;20513;-67
2021/10/10 11:05:38;;;;;;;25.10;22.52;;;22.50;64.20;;;;;;5079488;28;20065;-67
2021/10/10 11:08:16;;;;;;;24.77;22.20;;;22.50;60.80;;;;;;5054281;28;20041;-67
2021/10/10 11:11:04;;;;;;;23.80;21.48;;;22.50;62.50;;;;;;5057058;28;20032;-67
2021/10/10 11:13:36;;;;;;;24.88;22.38;;;22.50;62.10;;;;;;5054326;28;20566;-68
2021/10/10 11:16:10;;;;;;;25.30;22.83;;;22.50;62.70;;;;;;5053236;28;20124;-67
2021/10/10 11:18:41;;;;;;;24.48;22.08;;;22.60;61.90;;;;;;5051649;28;20041;-67
2021/10/10 11:21:08;;;;;;;26.83;23.98;;;22.50;62.30;;;;;;5045886;28;20064;-67
2021/10/10 11:23:35;;;;;;;26.90;24.00;;;22.50;62.30;;;;;;5057539;28;20043;-67
2021/10/10 11:26:12;;;;;;;26.42;23.55;;;22.60;61.60;;;;;;5067710;28;20091;-67
2021/10/10 11:28:47;;;;;;;27.73;25.08;;;22.60;59.80;;;;;;5051975;28;20072;-67
2021/10/10 11:31:18;;;;;;;27.25;24.38;;;22.40;61.10;;;;;;5060386;28;20041;-67
2021/10/10 11:34:06;;;;;;;25.77;23.08;;;22.40;60.30;;;;;;5057231;28;20044;-67
2021/10/10 11:36:46;;;;;;;26.90;24.10;;;22.50;61.80;;;;;;5060634;28;20048;-67
2021/10/10 11:39:16;;;;;;;27.10;24.27;;;22.30;60.50;;;;;;5054838;28;20385;-67
2021/10/10 11:41:50;;;;;;;27.63;24.83;;;22.20;61.40;;;;;;5052671;28;20033;-67
2021/10/10 11:44:18;;;;;;;27.42;24.48;;;22.10;62.40;;;;;;5053703;28;20044;-67
2021/10/10 11:46:56;;;;;;;26.50;23.88;;;22.10;64.20;;;;;;5053503;28;20044;-67
2021/10/10 11:52:25;;;;;;;27.08;24.33;;;22.20;62.80;;;;;;5064866;28;20048;-67
2021/10/10 11:57:36;;;;;;;27.80;24.88;;;22.30;63.90;;;;;;5062222;28;20068;-67
2021/10/10 12:00:08;;;;;;;27.63;24.65;;;22.50;63.80;;;;;;5056638;28;20071;-67
2021/10/10 12:02:38;;;;;;;27.23;24.33;;;22.70;62.50;;;;;;5063216;28;20094;-67
2021/10/10 12:05:11;;;;;;;27.90;25.20;;;22.90;61.90;;;;;;5057514;28;20054;-67
2021/10/10 12:07:38;;;;;;;28.87;25.97;;;22.60;60.30;;;;;;5060716;28;20441;-67
2021/10/10 12:10:07;;;;;;;28.35;25.48;;;22.60;61.50;;;;;;5054524;28;20047;-67
2021/10/10 12:12:33;;;;;;;77.70;69.80;;;22.70;61.80;;;;;;5064855;28;20040;-67
2021/10/10 12:14:59;;;;;;;31.58;28.27;;;22.70;60.50;;;;;;5034185;28;20054;-67
2021/10/10 12:17:32;;;;;;;30.38;27.27;;;22.80;60.80;;;;;;5062958;28;20055;-67
2021/10/10 12:19:59;;;;;;;28.88;25.90;;;23.00;61.50;;;;;;5053001;28;20067;-67
2021/10/10 12:22:26;;;;;;;28.65;25.70;;;23.20;60.80;;;;;;5064520;28;20037;-68
2021/10/10 12:24:52;;;;;;;29.55;26.25;;;23.30;60.40;;;;;;5055634;28;20406;-68
2021/10/10 12:27:29;;;;;;;29.17;26.17;;;23.40;60.50;;;;;;5067065;28;20134;-67
2021/10/10 12:29:56;;;;;;;29.70;26.70;;;23.10;60.00;;;;;;5055354;28;20040;-67
2021/10/10 12:32:32;;;;;;;28.23;25.48;;;22.70;60.40;;;;;;5044022;28;20064;-67
2021/10/10 12:35:15;;;;;;;29.25;26.10;;;21.80;62.60;;;;;;5057924;28;20400;-68
2021/10/10 12:37:58;;;;;;;32.17;28.90;;;21.00;65.20;;;;;;5061370;28;20137;-68
2021/10/10 12:40:36;;;;;;;32.08;28.75;;;20.40;66.10;;;;;;5054924;28;20412;-68
2021/10/10 12:43:02;;;;;;;30.23;26.35;;;20.00;68.00;;;;;;5064365;28;20040;-68
2021/10/10 12:45:30;;;;;;;30.25;26.98;;;19.70;68.00;;;;;;5056503;28;20537;-67
2021/10/10 12:48:05;;;;;;;31.63;27.25;;;19.50;68.20;;;;;;5042839;28;20163;-68
2021/10/10 12:50:33;;;;;;;31.05;27.23;;;19.00;69.00;;;;;;5040794;28;20106;-68
2021/10/10 12:52:59;;;;;;;32.13;28.23;;;18.80;70.20;;;;;;5061686;28;20112;-68